createdAt,value
2018-09-25T00:00:15.918Z,2.40
2018-09-25T00:02:49.620Z,2.60
2018-09-25T00:05:23.368Z,2.93
2018-09-25T00:07:57.129Z,1.97
2018-09-25T00:10:30.733Z,2.37
2018-09-25T00:13:04.587Z,2.00
2018-09-25T00:15:38.408Z,1.80
2018-09-25T00:18:12.146Z,2.10
2018-09-25T00:20:45.829Z,2.00
2018-09-25T00:23:19.553Z,2.00
2018-09-25T00:25:53.195Z,2.30
2018-09-25T00:28:27.085Z,2.17
2018-09-25T00:31:00.981Z,2.27
2018-09-25T00:33:34.850Z,1.60
2018-09-25T00:36:08.670Z,1.60
2018-09-25T00:38:42.392Z,3.13
2018-09-25T00:41:16.233Z,1.57
2018-09-25T00:43:49.847Z,1.73
2018-09-25T00:46:23.661Z,2.03
2018-09-25T00:48:57.542Z,2.20
2018-09-25T00:51:31.420Z,2.10
2018-09-25T00:54:05.306Z,2.00
2018-09-25T00:56:39.133Z,1.77
2018-09-25T00:59:13.028Z,1.90
2018-09-25T01:01:46.697Z,2.80
2018-09-25T01:04:20.410Z,2.03
2018-09-25T01:06:53.990Z,1.60
2018-09-25T01:09:27.585Z,2.60
2018-09-25T01:12:01.272Z,1.73
2018-09-25T01:14:35.184Z,1.57
2018-09-25T01:17:09.036Z,1.80
2018-09-25T01:19:42.776Z,1.77
2018-09-25T01:22:16.648Z,1.70
2018-09-25T01:24:50.276Z,1.70
2018-09-25T01:27:23.955Z,1.40
2018-09-25T01:29:57.685Z,2.30
2018-09-25T01:32:31.384Z,1.70
2018-09-25T01:35:05.226Z,2.23
2018-09-25T01:37:38.877Z,1.60
2018-09-25T01:40:12.700Z,1.83
2018-09-25T01:42:46.544Z,2.63
2018-09-25T01:45:20.236Z,1.40
2018-09-25T01:47:54.097Z,1.87
2018-09-25T01:50:27.823Z,1.73
2018-09-25T01:53:01.540Z,1.63
2018-09-25T01:55:35.254Z,1.43
2018-09-25T01:58:09.967Z,1.53
2018-09-25T02:00:43.808Z,1.53
2018-09-25T02:03:17.508Z,1.83
2018-09-25T02:05:51.296Z,1.40
2018-09-25T02:08:25.033Z,1.90
2018-09-25T02:10:58.796Z,1.47
2018-09-25T02:13:32.577Z,2.30
2018-09-25T02:16:06.600Z,1.53
2018-09-25T02:18:40.458Z,1.80
2018-09-25T02:21:14.285Z,1.50
2018-09-25T02:23:48.113Z,1.70
2018-09-25T02:26:21.793Z,1.63
2018-09-25T02:28:55.611Z,1.70
2018-09-25T02:31:29.231Z,1.90
2018-09-25T02:34:02.952Z,1.33
2018-09-25T02:36:36.779Z,1.60
2018-09-25T02:39:14.032Z,1.23
2018-09-25T02:41:48.229Z,2.00
2018-09-25T02:44:22.157Z,1.33
2018-09-25T02:46:55.922Z,1.37
2018-09-25T02:49:29.772Z,1.67
2018-09-25T02:52:03.513Z,1.43
2018-09-25T02:54:37.314Z,1.57
2018-09-25T02:57:11.039Z,1.33
2018-09-25T02:59:44.798Z,1.33
2018-09-25T03:02:18.674Z,1.60
2018-09-25T03:04:52.493Z,2.23
2018-09-25T03:07:26.379Z,1.73
2018-09-25T03:10:00.189Z,1.83
2018-09-25T03:12:33.946Z,1.73
2018-09-25T03:15:07.779Z,1.60
2018-09-25T03:17:41.881Z,2.30
2018-09-25T03:20:15.477Z,1.83
2018-09-25T03:22:49.234Z,2.17
2018-09-25T03:25:23.014Z,2.17
2018-09-25T03:27:56.749Z,2.30
2018-09-25T03:30:30.564Z,2.43
2018-09-25T03:33:04.400Z,2.03
2018-09-25T03:35:38.268Z,2.10
2018-09-25T03:38:11.983Z,2.13
2018-09-25T03:40:45.694Z,2.30
2018-09-25T03:43:19.603Z,2.20
2018-09-25T03:45:53.228Z,2.27
2018-09-25T03:48:27.129Z,2.00
2018-09-25T03:51:00.826Z,1.73
2018-09-25T03:53:34.523Z,2.20
2018-09-25T03:56:08.220Z,2.20
2018-09-25T03:58:42.077Z,2.07
2018-09-25T04:01:15.789Z,2.00
2018-09-25T04:03:49.453Z,2.20
2018-09-25T04:06:23.173Z,2.13
2018-09-25T04:08:57.017Z,2.17
2018-09-25T04:11:30.695Z,1.97
2018-09-25T04:14:04.369Z,2.20
2018-09-25T04:16:38.125Z,2.17
2018-09-25T04:19:11.801Z,2.27
2018-09-25T04:21:45.506Z,2.33
2018-09-25T04:24:19.271Z,2.00
2018-09-25T04:26:53.107Z,2.30
2018-09-25T04:29:26.841Z,2.73
2018-09-25T04:32:00.493Z,1.77
2018-09-25T04:34:34.231Z,2.43
2018-09-25T04:37:07.860Z,2.13
2018-09-25T04:39:41.525Z,2.07
2018-09-25T04:42:16.358Z,2.50
2018-09-25T04:44:50.238Z,1.70
2018-09-25T04:47:24.109Z,2.03
2018-09-25T04:49:57.925Z,2.70
2018-09-25T04:52:31.732Z,2.70
2018-09-25T04:55:05.439Z,2.60
2018-09-25T04:57:39.244Z,1.90
2018-09-25T05:00:13.081Z,2.13
2018-09-25T05:02:46.784Z,2.33
2018-09-25T05:05:20.385Z,2.47
2018-09-25T05:07:54.089Z,3.03
2018-09-25T05:10:27.762Z,2.30
2018-09-25T05:13:01.376Z,4.33
2018-09-25T05:15:35.061Z,4.30
2018-09-25T05:18:08.917Z,5.63
2018-09-25T05:20:43.005Z,4.67
2018-09-25T05:23:16.778Z,4.27
2018-09-25T05:25:50.477Z,4.80
2018-09-25T05:28:24.294Z,4.23
2018-09-25T05:30:57.909Z,6.33
2018-09-25T05:33:31.675Z,4.23
2018-09-25T05:36:05.436Z,3.90
2018-09-25T05:38:39.113Z,6.17
2018-09-25T05:41:12.827Z,4.77
2018-09-25T05:43:46.642Z,5.13
2018-09-25T05:46:20.589Z,5.30
2018-09-25T05:48:54.542Z,3.60
2018-09-25T05:51:28.160Z,7.57
2018-09-25T05:54:03.101Z,3.50
2018-09-25T05:56:37.009Z,4.13
2018-09-25T05:59:10.645Z,5.90
2018-09-25T06:01:44.484Z,6.37
2018-09-25T06:04:18.332Z,4.20
2018-09-25T06:06:52.066Z,4.27
2018-09-25T06:09:25.637Z,4.33
2018-09-25T06:11:59.573Z,4.93
2018-09-25T06:14:33.344Z,2.90
2018-09-25T06:17:06.980Z,3.40
2018-09-25T06:19:40.851Z,5.30
2018-09-25T06:22:14.772Z,5.27
2018-09-25T06:24:48.476Z,4.90
2018-09-25T06:27:22.148Z,3.50
2018-09-25T06:29:55.813Z,8.70
2018-09-25T06:32:29.668Z,10.63
2018-09-25T06:35:03.595Z,5.23
2018-09-25T06:37:37.215Z,3.83
2018-09-25T06:40:11.033Z,4.20
2018-09-25T06:42:44.899Z,4.43
2018-09-25T06:45:18.783Z,5.00
2018-09-25T06:47:52.479Z,2.90
2018-09-25T06:50:26.303Z,3.50
2018-09-25T06:53:00.208Z,3.50
2018-09-25T06:55:34.053Z,3.87
2018-09-25T06:58:07.805Z,4.03
2018-09-25T07:00:41.687Z,2.90
2018-09-25T07:03:15.375Z,5.23
2018-09-25T07:05:49.057Z,4.83
2018-09-25T07:08:22.714Z,3.00
2018-09-25T07:10:56.342Z,2.73
2018-09-25T07:13:30.179Z,3.77
2018-09-25T07:16:03.891Z,2.87
2018-09-25T07:18:37.712Z,2.90
2018-09-25T07:21:12.234Z,2.20
2018-09-25T07:23:46.210Z,4.53
2018-09-25T07:26:20.056Z,3.13
2018-09-25T07:28:53.747Z,7.13
2018-09-25T07:31:27.472Z,2.70
2018-09-25T07:34:01.322Z,2.63
2018-09-25T07:36:34.957Z,3.70
2018-09-25T07:39:08.866Z,3.47
2018-09-25T07:41:42.502Z,3.93
2018-09-25T07:44:16.365Z,2.90
2018-09-25T07:46:50.228Z,3.20
2018-09-25T07:49:24.016Z,4.33
2018-09-25T07:51:57.638Z,3.50
2018-09-25T07:54:31.320Z,3.87
2018-09-25T07:57:04.996Z,3.50
2018-09-25T07:59:38.662Z,3.90
2018-09-25T08:02:12.306Z,5.00
2018-09-25T08:04:46.160Z,4.60
2018-09-25T08:07:19.848Z,3.43
2018-09-25T08:09:53.552Z,4.70
2018-09-25T08:12:27.452Z,3.97
2018-09-25T08:15:01.177Z,6.03
2018-09-25T08:17:34.995Z,3.17
2018-09-25T08:20:08.734Z,3.40
2018-09-25T08:22:42.606Z,3.20
2018-09-25T08:25:16.280Z,3.57
2018-09-25T08:27:49.884Z,4.30
2018-09-25T08:30:23.829Z,3.07
2018-09-25T08:32:57.662Z,4.27
2018-09-25T08:35:31.552Z,4.50
2018-09-25T08:38:05.284Z,4.00
2018-09-25T08:40:39.212Z,4.13
2018-09-25T08:43:13.085Z,4.83
2018-09-25T08:45:47.021Z,3.60
2018-09-25T08:48:20.750Z,3.10
2018-09-25T08:50:54.430Z,3.30
2018-09-25T08:53:28.304Z,3.20
2018-09-25T08:56:01.981Z,3.27
2018-09-25T08:58:35.704Z,4.93
2018-09-25T09:01:09.620Z,4.53
2018-09-25T09:03:43.300Z,3.97
2018-09-25T09:06:17.006Z,3.63
2018-09-25T09:08:50.690Z,4.10
2018-09-25T09:11:24.457Z,4.53
2018-09-25T09:13:58.196Z,4.53
2018-09-25T09:16:32.028Z,4.07
2018-09-25T09:19:05.721Z,4.17
2018-09-25T09:21:39.608Z,3.73
2018-09-25T09:24:13.436Z,3.63
2018-09-25T09:26:47.478Z,3.33
2018-09-25T09:29:21.191Z,3.73
2018-09-25T09:31:54.904Z,3.10
2018-09-25T09:34:28.572Z,2.70
2018-09-25T09:37:02.261Z,3.27
2018-09-25T09:39:36.114Z,3.10
2018-09-25T09:42:09.793Z,4.67
2018-09-25T09:44:43.449Z,3.80
2018-09-25T09:47:17.450Z,3.70
2018-09-25T09:49:51.107Z,4.10
2018-09-25T09:52:24.823Z,3.40
2018-09-25T09:54:58.516Z,3.10
2018-09-25T09:57:32.265Z,4.20
2018-09-25T10:00:05.905Z,3.43
2018-09-25T10:02:39.634Z,2.83
2018-09-25T10:05:13.531Z,4.30
2018-09-25T10:07:47.276Z,3.17
2018-09-25T10:10:20.986Z,2.93
2018-09-25T10:12:54.841Z,2.73
2018-09-25T10:15:28.697Z,3.40
2018-09-25T10:18:02.379Z,3.60
2018-09-25T10:20:36.132Z,3.37
2018-09-25T10:23:09.967Z,3.07
2018-09-25T10:25:43.672Z,3.73
2018-09-25T10:28:17.522Z,3.60
2018-09-25T10:30:51.224Z,3.33
2018-09-25T10:33:24.892Z,2.60
2018-09-25T10:35:58.790Z,3.97
2018-09-25T10:38:32.640Z,2.90
2018-09-25T10:41:06.537Z,4.90
2018-09-25T10:43:40.269Z,2.97
2018-09-25T10:46:13.968Z,2.80
2018-09-25T10:48:47.870Z,2.63
2018-09-25T10:51:21.657Z,3.33
2018-09-25T10:53:55.471Z,2.97
2018-09-25T10:56:29.242Z,2.60
2018-09-25T10:59:03.049Z,3.27
2018-09-25T11:01:36.722Z,4.43
2018-09-25T11:04:10.413Z,2.97
2018-09-25T11:06:44.124Z,3.00
2018-09-25T11:09:17.824Z,3.13
2018-09-25T11:11:51.673Z,2.90
2018-09-25T11:14:25.597Z,3.07
2018-09-25T11:16:59.276Z,3.13
2018-09-25T11:19:33.005Z,3.63
2018-09-25T11:22:06.784Z,2.40
2018-09-25T11:24:40.496Z,2.77
2018-09-25T11:27:14.170Z,2.50
2018-09-25T11:29:48.046Z,2.87
2018-09-25T11:32:21.805Z,2.67
2018-09-25T11:34:55.675Z,3.40
2018-09-25T11:37:29.679Z,2.53
2018-09-25T11:40:03.482Z,2.80
2018-09-25T11:42:37.131Z,2.90
2018-09-25T11:45:11.006Z,2.43
2018-09-25T11:47:44.974Z,3.40
2018-09-25T11:50:18.671Z,2.37
2018-09-25T11:52:52.686Z,2.60
2018-09-25T11:55:26.351Z,2.67
2018-09-25T11:58:00.161Z,2.80
2018-09-25T12:00:33.792Z,2.70
2018-09-25T12:03:07.567Z,3.20
2018-09-25T12:05:41.569Z,2.87
2018-09-25T12:08:15.306Z,3.33
2018-09-25T12:10:49.146Z,3.10
2018-09-25T12:13:22.960Z,2.67
2018-09-25T12:15:56.636Z,3.20
2018-09-25T12:18:30.564Z,2.10
2018-09-25T12:21:04.255Z,2.30
2018-09-25T12:23:38.126Z,2.07
2018-09-25T12:26:12.097Z,2.27
2018-09-25T12:28:45.723Z,2.40
2018-09-25T12:31:19.671Z,2.40
2018-09-25T12:33:53.415Z,2.33
2018-09-25T12:36:27.092Z,4.50
2018-09-25T12:39:00.750Z,2.20
2018-09-25T12:41:34.460Z,2.80
2018-09-25T12:44:08.312Z,2.10
2018-09-25T12:46:42.183Z,2.33
2018-09-25T12:49:16.021Z,2.47
2018-09-25T12:51:49.708Z,4.10
2018-09-25T12:54:23.562Z,2.33
2018-09-25T12:56:57.417Z,4.17
2018-09-25T12:59:31.235Z,2.23
2018-09-25T13:02:05.097Z,2.13
2018-09-25T13:04:38.848Z,2.10
2018-09-25T13:07:12.472Z,2.47
2018-09-25T13:09:46.345Z,2.43
2018-09-25T13:12:20.033Z,3.37
2018-09-25T13:14:53.736Z,2.43
2018-09-25T13:17:27.658Z,2.17
2018-09-25T13:20:01.362Z,2.17
2018-09-25T13:22:35.209Z,2.50
2018-09-25T13:25:08.932Z,2.27
2018-09-25T13:27:42.720Z,2.20
2018-09-25T13:30:16.565Z,2.50
2018-09-25T13:32:50.552Z,2.10
2018-09-25T13:35:24.277Z,2.20
2018-09-25T13:37:58.064Z,2.60
2018-09-25T13:40:31.939Z,1.90
2018-09-25T13:43:05.659Z,2.03
2018-09-25T13:45:39.445Z,1.87
2018-09-25T13:48:13.134Z,2.37
2018-09-25T13:50:46.791Z,2.37
2018-09-25T13:53:20.432Z,2.27
2018-09-25T13:55:54.261Z,1.80
2018-09-25T13:58:28.105Z,2.57
2018-09-25T14:01:01.990Z,2.20
2018-09-25T14:03:35.817Z,1.87
2018-09-25T14:06:09.440Z,1.67
2018-09-25T14:08:43.141Z,2.00
2018-09-25T14:11:16.991Z,1.70
2018-09-25T14:13:50.565Z,1.73
2018-09-25T14:16:24.252Z,2.07
2018-09-25T14:18:57.985Z,1.97
2018-09-25T14:21:31.660Z,1.90
2018-09-25T14:24:05.544Z,2.13
2018-09-25T14:26:39.348Z,2.17
2018-09-25T14:29:13.232Z,2.27
2018-09-25T14:31:47.043Z,1.40
2018-09-25T14:34:20.919Z,2.50
2018-09-25T14:36:54.576Z,2.13
2018-09-25T14:39:28.289Z,2.50
2018-09-25T14:42:01.922Z,1.70
2018-09-25T14:44:35.623Z,2.13
2018-09-25T14:47:09.417Z,2.03
2018-09-25T14:49:43.228Z,2.60
2018-09-25T14:52:16.950Z,1.97
2018-09-25T14:54:51.097Z,2.17
2018-09-25T14:57:24.729Z,2.87
2018-09-25T14:59:58.480Z,2.30
2018-09-25T15:02:32.360Z,2.13
2018-09-25T15:05:06.028Z,1.93
2018-09-25T15:07:39.630Z,1.87
2018-09-25T15:10:13.472Z,2.10
2018-09-25T15:12:47.963Z,2.87
2018-09-25T15:15:21.718Z,2.30
2018-09-25T15:17:55.474Z,2.03
2018-09-25T15:20:29.117Z,2.00
2018-09-25T15:23:09.738Z,3.47
2018-09-25T15:25:43.376Z,2.07
2018-09-25T15:28:17.014Z,3.37
2018-09-25T15:30:50.838Z,2.20
2018-09-25T15:33:24.599Z,3.17
2018-09-25T15:35:58.389Z,3.00
2018-09-25T15:38:32.207Z,3.67
2018-09-25T15:41:05.964Z,3.03
2018-09-25T15:43:39.648Z,2.20
2018-09-25T15:46:13.326Z,2.30
2018-09-25T15:48:47.212Z,2.90
2018-09-25T15:51:21.196Z,2.87
2018-09-25T15:53:54.800Z,2.40
2018-09-25T15:56:28.482Z,2.10
2018-09-25T15:59:02.262Z,2.13
2018-09-25T16:01:36.137Z,3.23
2018-09-25T16:04:09.728Z,4.63
2018-09-25T16:06:43.435Z,2.67
2018-09-25T16:09:17.188Z,3.47
2018-09-25T16:11:50.905Z,4.93
2018-09-25T16:14:24.644Z,5.17
2018-09-25T16:16:58.547Z,4.77
2018-09-25T16:19:32.523Z,2.73
2018-09-25T16:22:06.233Z,5.63
2018-09-25T16:24:39.901Z,3.83
2018-09-25T16:27:13.526Z,2.37
2018-09-25T16:29:47.357Z,3.00
2018-09-25T16:32:21.036Z,3.23
2018-09-25T16:34:54.911Z,4.00
2018-09-25T16:37:28.799Z,4.83
2018-09-25T16:40:02.736Z,3.47
2018-09-25T16:42:36.949Z,4.30
2018-09-25T16:45:11.042Z,6.57
2018-09-25T16:47:44.728Z,4.00
2018-09-25T16:50:18.604Z,5.37
2018-09-25T16:52:52.464Z,4.53
2018-09-25T16:55:26.255Z,3.37
2018-09-25T16:58:00.081Z,4.57
2018-09-25T17:00:33.961Z,4.30
2018-09-25T17:03:08.022Z,6.27
2018-09-25T17:05:41.695Z,7.33
2018-09-25T17:08:15.555Z,5.03
2018-09-25T17:10:49.218Z,6.20
2018-09-25T17:13:22.971Z,4.07
2018-09-25T17:15:56.814Z,4.00
2018-09-25T17:18:30.668Z,3.37
2018-09-25T17:21:04.475Z,5.43
2018-09-25T17:23:38.574Z,4.27
2018-09-25T17:26:12.285Z,3.30
2018-09-25T17:28:46.160Z,5.83
2018-09-25T17:31:19.875Z,7.97
2018-09-25T17:33:53.723Z,5.03
2018-09-25T17:36:27.432Z,5.57
2018-09-25T17:39:01.419Z,5.30
2018-09-25T17:41:35.596Z,5.07
2018-09-25T17:44:09.333Z,3.07
2018-09-25T17:46:44.180Z,2.63
2018-09-25T17:49:18.086Z,3.83
2018-09-25T17:51:51.939Z,4.33
2018-09-25T17:54:25.639Z,3.30
2018-09-25T17:56:59.484Z,3.33
2018-09-25T17:59:33.252Z,4.40
2018-09-25T18:02:07.934Z,4.43
2018-09-25T18:04:41.722Z,4.07
2018-09-25T18:07:15.444Z,3.33
2018-09-25T18:09:49.357Z,4.30
2018-09-25T18:12:24.052Z,4.10
2018-09-25T18:14:57.720Z,4.83
2018-09-25T18:17:31.628Z,3.63
2018-09-25T18:20:05.355Z,5.40
2018-09-25T18:22:38.987Z,2.80
2018-09-25T18:25:12.589Z,2.70
2018-09-25T18:27:46.316Z,5.00
2018-09-25T18:30:20.244Z,2.90
2018-09-25T18:32:53.941Z,3.33
2018-09-25T18:35:27.634Z,3.30
2018-09-25T18:38:01.569Z,3.43
2018-09-25T18:40:35.786Z,2.80
2018-09-25T18:43:09.556Z,4.13
2018-09-25T18:45:43.437Z,2.90
2018-09-25T18:48:17.092Z,3.07
2018-09-25T18:50:50.961Z,5.30
2018-09-25T18:53:24.836Z,2.90
2018-09-25T18:55:58.526Z,3.50
2018-09-25T18:58:32.226Z,3.07
2018-09-25T19:01:06.116Z,3.87
2018-09-25T19:03:40.077Z,3.80
2018-09-25T19:06:13.753Z,3.10
2018-09-25T19:08:47.607Z,2.90
2018-09-25T19:11:21.480Z,3.50
2018-09-25T19:13:55.136Z,3.20
2018-09-25T19:16:29.035Z,4.10
2018-09-25T19:19:02.779Z,3.33
2018-09-25T19:21:36.653Z,2.70
2018-09-25T19:24:10.332Z,2.63
2018-09-25T19:26:44.186Z,2.50
2018-09-25T19:29:17.864Z,3.57
2018-09-25T19:31:51.746Z,2.63
2018-09-25T19:34:25.425Z,3.80
2018-09-25T19:36:59.338Z,2.40
2018-09-25T19:39:33.198Z,2.70
2018-09-25T19:42:07.158Z,3.77
2018-09-25T19:44:40.771Z,2.53
2018-09-25T19:47:14.708Z,3.20
2018-09-25T19:49:48.554Z,2.43
2018-09-25T19:52:22.560Z,3.90
2018-09-25T19:54:56.475Z,2.60
2018-09-25T19:57:30.259Z,2.70
2018-09-25T20:00:03.983Z,3.40
2018-09-25T20:02:38.659Z,3.53
2018-09-25T20:05:12.337Z,3.20
2018-09-25T20:07:45.928Z,2.83
2018-09-25T20:10:19.575Z,2.77
2018-09-25T20:12:53.811Z,2.40
2018-09-25T20:15:27.435Z,2.83
2018-09-25T20:18:01.218Z,3.40
2018-09-25T20:20:35.919Z,3.10
2018-09-25T20:23:09.754Z,2.57
2018-09-25T20:25:43.559Z,2.57
2018-09-25T20:28:17.294Z,3.60
2018-09-25T20:30:50.999Z,2.30
2018-09-25T20:33:24.628Z,3.40
2018-09-25T20:35:58.230Z,2.97
2018-09-25T20:38:31.922Z,2.40
2018-09-25T20:41:05.816Z,2.87
2018-09-25T20:43:39.754Z,3.77
2018-09-25T20:46:13.425Z,2.77
2018-09-25T20:48:47.266Z,2.47
2018-09-25T20:51:21.087Z,2.30
2018-09-25T20:53:54.876Z,2.80
2018-09-25T20:56:28.531Z,3.30
2018-09-25T20:59:02.379Z,2.67
2018-09-25T21:01:36.146Z,3.07
2018-09-25T21:04:09.855Z,2.87
2018-09-25T21:06:43.508Z,2.60
2018-09-25T21:09:17.240Z,2.30
2018-09-25T21:11:50.942Z,2.33
2018-09-25T21:14:24.872Z,3.30
2018-09-25T21:16:58.537Z,2.97
2018-09-25T21:19:32.358Z,2.57
2018-09-25T21:22:06.218Z,2.67
2018-09-25T21:24:39.954Z,3.93
2018-09-25T21:27:13.885Z,2.57
2018-09-25T21:29:47.633Z,2.63
2018-09-25T21:32:21.238Z,2.63
2018-09-25T21:34:54.896Z,3.00
2018-09-25T21:37:28.746Z,3.07
2018-09-25T21:40:02.662Z,3.03
2018-09-25T21:42:36.376Z,3.13
2018-09-25T21:45:10.305Z,3.17
2018-09-25T21:47:44.167Z,2.90
2018-09-25T21:50:17.872Z,2.77
2018-09-25T21:52:51.757Z,2.60
2018-09-25T21:55:25.486Z,2.50
2018-09-25T21:57:59.791Z,2.60
2018-09-25T22:00:33.651Z,2.77
2018-09-25T22:03:07.387Z,2.77
2018-09-25T22:05:41.058Z,2.60
2018-09-25T22:08:14.765Z,2.57
2018-09-25T22:10:48.659Z,3.10
2018-09-25T22:13:22.520Z,3.03
2018-09-25T22:15:56.448Z,2.50
2018-09-25T22:18:30.299Z,2.57
2018-09-25T22:21:04.014Z,2.73
2018-09-25T22:23:37.726Z,4.37
2018-09-25T22:26:11.673Z,2.70
2018-09-25T22:28:45.552Z,4.70
2018-09-25T22:31:19.228Z,2.97
2018-09-25T22:33:52.999Z,2.90
2018-09-25T22:36:26.653Z,3.00
2018-09-25T22:39:00.571Z,2.70
2018-09-25T22:41:34.325Z,2.47
2018-09-25T22:44:08.134Z,2.63
2018-09-25T22:46:41.894Z,2.77
2018-09-25T22:49:15.569Z,2.80
2018-09-25T22:51:49.303Z,2.47
2018-09-25T22:54:23.216Z,2.67
2018-09-25T22:56:56.953Z,2.50
2018-09-25T22:59:30.657Z,2.70
2018-09-25T23:02:04.483Z,2.60
2018-09-25T23:04:38.368Z,2.90
2018-09-25T23:07:12.084Z,2.60
2018-09-25T23:09:45.942Z,2.50
2018-09-25T23:12:19.615Z,2.60
2018-09-25T23:14:53.269Z,2.60
2018-09-25T23:17:26.967Z,2.60
2018-09-25T23:20:00.763Z,2.60
2018-09-25T23:22:34.522Z,2.63
2018-09-25T23:25:08.327Z,2.90
2018-09-25T23:27:41.968Z,3.00
2018-09-25T23:30:15.798Z,3.23
2018-09-25T23:32:49.481Z,2.97
2018-09-25T23:35:23.283Z,2.83
2018-09-25T23:37:56.947Z,3.17
2018-09-25T23:40:31.456Z,2.80
2018-09-25T23:43:05.303Z,3.50
2018-09-25T23:45:41.702Z,2.50
2018-09-25T23:48:48.175Z,2.70
2018-09-25T23:51:25.779Z,2.67
2018-09-25T23:54:00.529Z,2.43
2018-09-25T23:56:36.538Z,2.83
2018-09-25T23:59:13.645Z,3.63
